Time;durP1;ratioP1;P1;durP2;ratioP2;P2;SDS_P1;SDS_P2;PMS_P1;PMS_P2;Temp;Humidity;BMP_temperature;BMP_pressure;BME280_temperature;BME280_humidity;BME280_pressure;Samples;Min_cycle;Max_cycle;Signal;HPM_P1;HPM_P2
2021/04/29 00:02:04;;;;;;;;;;;17.10;99.90;;;;;;5015664;28;19917;-72
2021/04/29 00:04:30;;;;;;;;;;;17.10;99.90;;;;;;5015516;28;19910;-71
2021/04/29 00:06:57;;;;;;;;;;;17.10;99.90;;;;;;5015102;28;20288;-71
2021/04/29 00:09:24;;;;;;;;;;;17.20;99.90;;;;;;5015305;28;19910;-71
2021/04/29 00:11:51;;;;;;;;;;;17.30;99.90;;;;;;5009091;28;19914;-70
2021/04/29 00:14:18;;;;;;;;;;;17.40;99.90;;;;;;5003633;28;19918;-70
2021/04/29 00:16:44;;;;;;;;;;;17.50;99.90;;;;;;4994658;28;19910;-71
2021/04/29 00:19:11;;;;;;;;;;;17.60;99.90;;;;;;5014450;28;19979;-71
2021/04/29 00:21:38;;;;;;;;;;;17.70;99.90;;;;;;5015074;28;19910;-71
2021/04/29 00:24:05;;;;;;;;;;;17.80;99.90;;;;;;5014942;28;19916;-70
2021/04/29 00:26:34;;;;;;;;;;;18.00;99.90;;;;;;5015109;28;19910;-71
2021/04/29 00:29:00;;;;;;;;;;;18.00;99.90;;;;;;5014770;28;20228;-69
2021/04/29 00:31:29;;;;;;;;;;;18.10;99.90;;;;;;5014899;28;19914;-69
2021/04/29 00:33:58;;;;;;;;;;;18.20;99.90;;;;;;5014906;28;20012;-69
2021/04/29 00:36:25;;;;;;;;;;;18.20;99.90;;;;;;5014939;28;20292;-68
2021/04/29 00:38:52;;;;;;;;;;;18.30;99.90;;;;;;5014750;28;19916;-67
2021/04/29 00:41:18;;;;;;;;;;;18.30;99.90;;;;;;5014794;28;20004;-68
2021/04/29 00:43:45;;;;;;;;;;;18.30;99.90;;;;;;5014619;28;19918;-71
2021/04/29 00:46:14;;;;;;;;;;;18.30;99.90;;;;;;5014887;28;20360;-69
2021/04/29 00:48:42;;;;;;;;;;;18.40;99.90;;;;;;5014693;28;19916;-69
2021/04/29 00:51:08;;;;;;;;;;;18.40;99.90;;;;;;5014780;28;19909;-68
2021/04/29 00:53:39;;;;;;;;;;;18.40;99.90;;;;;;5014753;28;20012;-68
2021/04/29 00:56:06;;;;;;;;;;;18.40;99.90;;;;;;5014486;28;19913;-67
2021/04/29 00:58:36;;;;;;;;;;;18.50;99.90;;;;;;5014291;28;19932;-69
2021/04/29 01:01:04;;;;;;;;;;;18.60;99.90;;;;;;5014207;28;19920;-68
2021/04/29 01:03:31;;;;;;;;;;;18.60;99.90;;;;;;5014359;28;19910;-69
2021/04/29 01:06:00;;;;;;;;;;;18.90;99.90;;;;;;5014244;28;19951;-71
2021/04/29 01:08:33;;;;;;;;;;;19.50;99.90;;;;;;5014304;28;19913;-69
2021/04/29 01:11:19;;;;;;;;;;;20.80;99.90;;;;;;5013499;28;19950;-68
2021/04/29 01:13:50;;;;;;;;;;;20.80;99.90;;;;;;5014103;28;19960;-69
2021/04/29 01:16:18;;;;;;;;;;;20.60;99.90;;;;;;5014245;28;19924;-70
2021/04/29 01:18:45;;;;;;;;;;;21.10;99.90;;;;;;5013951;28;19948;-70
2021/04/29 01:21:14;;;;;;;;;;;21.60;99.50;;;;;;5014094;28;19910;-70
2021/04/29 01:23:42;;;;;;;;;;;21.40;99.00;;;;;;5014043;28;20368;-71
2021/04/29 01:26:14;;;;;;;;;;;21.20;99.60;;;;;;5013929;28;19913;-71
2021/04/29 01:28:41;;;;;;;;;;;21.20;99.40;;;;;;5014145;28;19964;-70
2021/04/29 01:31:09;;;;;;;;;;;20.80;99.70;;;;;;5013903;28;19956;-71
2021/04/29 01:33:36;;;;;;;;;;;20.50;99.90;;;;;;5013903;28;19917;-69
2021/04/29 01:36:03;;;;;;;;;;;20.70;99.90;;;;;;5014036;28;19910;-70
2021/04/29 01:38:30;;;;;;;;;;;20.70;99.30;;;;;;5013711;28;19945;-71
2021/04/29 01:40:57;;;;;;;;;;;20.60;99.20;;;;;;5013425;28;19926;-71
2021/04/29 01:43:24;;;;;;;;;;;20.50;99.30;;;;;;5013731;28;20439;-70
2021/04/29 01:45:51;;;;;;;;;;;20.40;99.50;;;;;;5013745;28;19961;-70
2021/04/29 01:48:17;;;;;;;;;;;20.30;99.90;;;;;;5013609;28;19913;-71
2021/04/29 01:50:45;;;;;;;;;;;20.20;99.90;;;;;;5015148;28;19917;-70
2021/04/29 01:53:12;;;;;;;;;;;20.20;99.90;;;;;;5017952;28;19924;-69
2021/04/29 01:55:39;;;;;;;;;;;20.20;99.90;;;;;;5017374;28;20296;-71
2021/04/29 01:58:05;;;;;;;;;;;20.10;99.90;;;;;;5017630;28;19909;-70
2021/04/29 02:00:32;;;;;;;;;;;20.10;99.90;;;;;;5018967;28;19909;-70
2021/04/29 02:03:02;;;;;;;;;;;19.90;99.90;;;;;;5017766;28;19964;-71
2021/04/29 02:05:28;;;;;;;;;;;20.00;99.90;;;;;;5004983;28;19910;-69
2021/04/29 02:07:57;;;;;;;;;;;20.00;99.90;;;;;;5022218;28;19909;-71
2021/04/29 02:10:25;;;;;;;;;;;20.20;99.90;;;;;;5019528;28;19917;-69
2021/04/29 02:12:57;;;;;;;;;;;20.10;99.90;;;;;;5016279;28;19916;-71
2021/04/29 02:15:29;;;;;;;;;;;20.00;99.90;;;;;;5014837;28;20399;-71
2021/04/29 02:18:08;;;;;;;;;;;20.00;99.90;;;;;;5014498;28;19909;-71
2021/04/29 02:20:36;;;;;;;;;;;20.00;99.90;;;;;;5013798;28;19916;-71
2021/04/29 02:23:06;;;;;;;;;;;20.10;99.90;;;;;;5012334;28;20422;-71
2021/04/29 02:25:33;;;;;;;;;;;20.10;99.90;;;;;;5013153;28;19909;-70
2021/04/29 02:28:00;;;;;;;;;;;20.20;99.90;;;;;;5013252;28;19909;-71
2021/04/29 02:30:26;;;;;;;;;;;20.20;99.90;;;;;;5013347;28;19917;-72
2021/04/29 02:32:53;;;;;;;;;;;20.10;99.90;;;;;;4995256;28;20269;-71
2021/04/29 02:35:20;;;;;;;;;;;20.10;99.90;;;;;;5012885;28;19918;-70
2021/04/29 02:37:50;;;;;;;;;;;20.10;99.90;;;;;;5013054;28;19913;-70
2021/04/29 02:40:18;;;;;;;;;;;20.10;99.90;;;;;;5012718;28;20360;-72
2021/04/29 02:42:45;;;;;;;;;;;20.20;99.90;;;;;;5012981;28;20597;-72
2021/04/29 02:45:14;;;;;;;;;;;20.20;99.90;;;;;;5013517;28;19910;-71
2021/04/29 02:47:41;;;;;;;;;;;20.20;99.90;;;;;;5013228;28;19909;-72
2021/04/29 02:50:13;;;;;;;;;;;20.20;99.90;;;;;;5012892;28;20375;-70
2021/04/29 02:52:40;;;;;;;;;;;20.20;99.90;;;;;;5012864;28;20000;-71
2021/04/29 02:55:07;;;;;;;;;;;20.30;99.90;;;;;;5012263;28;19980;-71
2021/04/29 02:57:34;;;;;;;;;;;20.20;99.90;;;;;;5012702;28;20241;-72
2021/04/29 03:00:02;;;;;;;;;;;20.20;99.90;;;;;;5012918;28;19910;-72
2021/04/29 03:02:28;;;;;;;;;;;20.30;99.90;;;;;;5012767;28;20386;-72
2021/04/29 03:04:55;;;;;;;;;;;20.30;99.90;;;;;;5012748;28;19953;-73
2021/04/29 03:07:21;;;;;;;;;;;20.30;99.90;;;;;;5012579;28;19941;-72
2021/04/29 03:09:48;;;;;;;;;;;20.30;99.90;;;;;;5012644;28;19936;-70
2021/04/29 03:12:15;;;;;;;;;;;20.20;99.90;;;;;;5012718;28;20257;-71
2021/04/29 03:14:41;;;;;;;;;;;20.10;99.90;;;;;;5012581;28;20058;-71
2021/04/29 03:17:08;;;;;;;;;;;20.10;99.90;;;;;;4995222;28;19909;-71
2021/04/29 03:19:35;;;;;;;;;;;20.10;99.90;;;;;;5012683;28;19914;-71
2021/04/29 03:22:01;;;;;;;;;;;20.00;99.90;;;;;;5012830;28;19918;-71
2021/04/29 03:24:28;;;;;;;;;;;20.10;99.90;;;;;;5012479;28;19913;-71
2021/04/29 03:26:54;;;;;;;;;;;20.10;99.90;;;;;;5012550;28;19910;-71
2021/04/29 03:29:21;;;;;;;;;;;20.10;99.90;;;;;;5012454;28;19913;-72
2021/04/29 03:31:48;;;;;;;;;;;20.20;99.90;;;;;;5012479;28;19936;-71
2021/04/29 03:34:14;;;;;;;;;;;20.10;99.90;;;;;;5015297;28;20311;-71
2021/04/29 03:36:41;;;;;;;;;;;20.10;99.90;;;;;;5015878;28;19909;-70
2021/04/29 03:39:08;;;;;;;;;;;20.10;99.90;;;;;;5015879;28;20348;-70
2021/04/29 03:41:34;;;;;;;;;;;20.10;99.90;;;;;;5015636;28;20308;-70
2021/04/29 03:44:01;;;;;;;;;;;20.20;99.90;;;;;;5015836;28;20375;-70
2021/04/29 03:46:28;;;;;;;;;;;20.40;99.90;;;;;;5015753;28;19910;-70
2021/04/29 03:48:55;;;;;;;;;;;20.50;99.90;;;;;;4997991;28;19909;-71
2021/04/29 03:51:21;;;;;;;;;;;20.40;99.90;;;;;;5015819;28;20373;-70
2021/04/29 03:53:48;;;;;;;;;;;20.30;99.90;;;;;;5015548;28;20473;-69
2021/04/29 03:56:14;;;;;;;;;;;20.30;99.90;;;;;;5015562;28;19913;-70
2021/04/29 03:58:41;;;;;;;;;;;20.50;99.90;;;;;;5015643;28;19937;-69
2021/04/29 04:01:08;;;;;;;;;;;20.40;99.90;;;;;;4998195;28;19952;-71
2021/04/29 04:03:34;;;;;;;;;;;20.30;99.90;;;;;;5015593;28;19913;-70
2021/04/29 04:06:01;;;;;;;;;;;20.30;99.90;;;;;;5015427;28;19921;-68
2021/04/29 04:08:28;;;;;;;;;;;20.20;99.90;;;;;;5015089;28;20288;-69
2021/04/29 04:10:54;;;;;;;;;;;20.20;99.90;;;;;;5015334;28;20418;-70
2021/04/29 04:13:22;;;;;;;;;;;20.30;99.90;;;;;;5015381;28;19916;-69
2021/04/29 04:15:48;;;;;;;;;;;20.30;99.90;;;;;;5015443;28;19920;-71
2021/04/29 04:18:15;;;;;;;;;;;20.30;99.80;;;;;;5015331;28;20056;-70
2021/04/29 04:20:45;;;;;;;;;;;20.30;99.90;;;;;;5015223;28;19941;-70
2021/04/29 04:23:12;;;;;;;;;;;20.30;99.90;;;;;;5015180;28;19909;-69
2021/04/29 04:25:38;;;;;;;;;;;20.20;99.80;;;;;;5015108;28;19910;-69
2021/04/29 04:28:05;;;;;;;;;;;20.10;99.90;;;;;;5015199;28;19910;-69
2021/04/29 04:30:31;;;;;;;;;;;20.10;99.90;;;;;;5015074;28;19944;-70
2021/04/29 04:32:58;;;;;;;;;;;20.10;99.90;;;;;;5014751;28;19909;-69
2021/04/29 04:35:25;;;;;;;;;;;20.20;99.90;;;;;;4997206;28;19921;-70
2021/04/29 04:37:51;;;;;;;;;;;20.20;99.90;;;;;;5014715;28;19909;-72
2021/04/29 04:40:18;;;;;;;;;;;20.20;99.60;;;;;;5014181;28;19948;-70
2021/04/29 04:42:45;;;;;;;;;;;20.20;99.90;;;;;;5014648;28;19915;-70
2021/04/29 04:45:12;;;;;;;;;;;20.20;99.60;;;;;;5014021;28;19996;-71
2021/04/29 04:47:39;;;;;;;;;;;20.10;99.90;;;;;;5014632;28;19913;-70
2021/04/29 04:50:08;;;;;;;;;;;20.20;99.70;;;;;;5014657;28;20295;-70
2021/04/29 04:52:35;;;;;;;;;;;20.20;99.80;;;;;;5014559;28;19914;-71
2021/04/29 04:55:01;;;;;;;;;;;20.20;99.90;;;;;;5014211;28;20368;-70
2021/04/29 04:57:28;;;;;;;;;;;20.10;99.90;;;;;;5014348;28;20047;-71
2021/04/29 04:59:54;;;;;;;;;;;20.20;99.90;;;;;;5014542;28;20498;-71
2021/04/29 05:02:21;;;;;;;;;;;20.10;99.90;;;;;;5014353;28;19910;-71
2021/04/29 05:04:48;;;;;;;;;;;20.00;99.90;;;;;;5014145;28;20487;-70
2021/04/29 05:07:15;;;;;;;;;;;20.10;99.90;;;;;;5014400;28;19909;-70
2021/04/29 05:09:43;;;;;;;;;;;20.00;99.90;;;;;;5014254;28;19909;-70
2021/04/29 05:12:10;;;;;;;;;;;20.00;99.90;;;;;;5014325;28;20008;-69
2021/04/29 05:14:37;;;;;;;;;;;19.90;99.90;;;;;;5013908;28;19922;-68
2021/04/29 05:17:04;;;;;;;;;;;19.90;99.90;;;;;;5013790;28;20356;-69
2021/04/29 05:19:30;;;;;;;;;;;19.90;99.90;;;;;;5014054;28;19909;-69
2021/04/29 05:21:57;;;;;;;;;;;19.90;99.80;;;;;;4996659;28;19913;-71
2021/04/29 05:24:25;;;;;;;;;;;19.90;99.90;;;;;;5013766;28;19910;-70
2021/04/29 05:26:51;;;;;;;;;;;19.80;99.40;;;;;;5013933;28;19909;-68
2021/04/29 05:29:18;;;;;;;;;;;19.70;99.70;;;;;;5013871;28;19910;-69
2021/04/29 05:31:45;;;;;;;;;;;19.80;99.90;;;;;;5013347;28;20261;-70
2021/04/29 05:34:12;;;;;;;;;;;19.80;99.90;;;;;;5014326;28;19913;-70
2021/04/29 05:36:38;;;;;;;;;;;19.70;99.90;;;;;;5014447;28;20369;-69
2021/04/29 05:39:05;;;;;;;;;;;19.80;99.90;;;;;;4997395;28;19909;-71
2021/04/29 05:41:32;;;;;;;;;;;19.80;99.90;;;;;;4997018;28;19953;-69
2021/04/29 05:43:59;;;;;;;;;;;19.80;99.90;;;;;;5013445;28;19909;-71
2021/04/29 05:46:26;;;;;;;;;;;19.70;99.90;;;;;;5013741;28;20249;-70
2021/04/29 05:48:52;;;;;;;;;;;19.70;99.90;;;;;;5013446;28;20344;-69
2021/04/29 05:51:19;;;;;;;;;;;19.70;99.90;;;;;;5013885;28;19953;-70
2021/04/29 05:53:46;;;;;;;;;;;19.70;99.90;;;;;;5013279;28;19913;-71
2021/04/29 05:56:15;;;;;;;;;;;19.60;99.90;;;;;;5013464;28;20450;-71
2021/04/29 05:58:42;;;;;;;;;;;19.60;99.90;;;;;;5013638;28;19910;-70
2021/04/29 06:01:10;;;;;;;;;;;19.50;99.90;;;;;;5013382;28;19909;-70
2021/04/29 06:03:37;;;;;;;;;;;19.50;99.90;;;;;;5013564;28;19918;-71
2021/04/29 06:06:04;;;;;;;;;;;19.50;99.90;;;;;;5013553;28;19917;-70
2021/04/29 06:08:31;;;;;;;;;;;19.50;99.90;;;;;;5013370;28;19913;-72
2021/04/29 06:10:58;;;;;;;;;;;19.40;99.90;;;;;;5013125;28;19909;-69
2021/04/29 06:13:24;;;;;;;;;;;19.40;99.90;;;;;;5013284;28;19913;-71
2021/04/29 06:15:51;;;;;;;;;;;19.30;99.90;;;;;;5013435;28;19913;-71
2021/04/29 06:18:18;;;;;;;;;;;19.30;99.90;;;;;;5013347;28;19913;-71
2021/04/29 06:20:44;;;;;;;;;;;19.30;99.90;;;;;;4995406;28;19979;-70
2021/04/29 06:23:11;;;;;;;;;;;19.20;99.90;;;;;;5013222;28;19909;-69
2021/04/29 06:25:38;;;;;;;;;;;19.20;99.90;;;;;;5013171;28;20402;-69
2021/04/29 06:28:04;;;;;;;;;;;19.20;99.90;;;;;;5013080;28;20367;-70
2021/04/29 06:30:31;;;;;;;;;;;19.20;99.90;;;;;;5013321;28;19918;-71
2021/04/29 06:32:58;;;;;;;;;;;19.10;99.90;;;;;;5012947;28;19909;-70
2021/04/29 06:35:27;;;;;;;;;;;19.10;99.90;;;;;;5013174;28;19928;-70
2021/04/29 06:37:54;;;;;;;;;;;19.10;99.90;;;;;;5012951;28;19911;-71
2021/04/29 06:40:21;;;;;;;;;;;19.10;99.90;;;;;;5012931;28;19917;-69
2021/04/29 06:42:47;;;;;;;;;;;19.00;99.90;;;;;;5012895;28;19921;-69
2021/04/29 06:45:14;;;;;;;;;;;19.00;99.90;;;;;;5013114;28;19913;-70
2021/04/29 06:47:41;;;;;;;;;;;19.00;99.90;;;;;;5013176;28;19931;-69
2021/04/29 06:50:08;;;;;;;;;;;19.00;99.90;;;;;;5012949;28;19910;-71
2021/04/29 06:52:35;;;;;;;;;;;18.90;99.90;;;;;;5012620;28;19914;-70
2021/04/29 06:55:01;;;;;;;;;;;18.90;99.90;;;;;;5012594;28;19925;-70
2021/04/29 06:57:28;;;;;;;;;;;18.80;99.90;;;;;;5012737;28;19955;-71
2021/04/29 06:59:55;;;;;;;;;;;18.80;99.90;;;;;;5012831;28;19917;-70
2021/04/29 07:02:21;;;;;;;;;;;18.70;99.90;;;;;;5006069;28;19916;-70
2021/04/29 07:04:48;;;;;;;;;;;18.70;99.90;;;;;;5001758;28;19917;-68
2021/04/29 07:07:15;;;;;;;;;;;18.70;99.90;;;;;;4991039;28;19968;-70
2021/04/29 07:09:43;;;;;;;;;;;18.70;99.90;;;;;;4996965;28;19914;-68
2021/04/29 07:12:09;;;;;;;;;;;18.60;99.90;;;;;;4993138;28;20331;-70
2021/04/29 07:14:36;;;;;;;;;;;18.60;99.90;;;;;;4994024;28;19914;-68
2021/04/29 07:17:03;;;;;;;;;;;18.60;99.90;;;;;;4993288;28;19914;-72
2021/04/29 07:19:29;;;;;;;;;;;18.60;99.90;;;;;;4993586;28;19980;-71
2021/04/29 07:21:56;;;;;;;;;;;18.50;99.90;;;;;;4994206;28;19910;-70
2021/04/29 07:24:23;;;;;;;;;;;18.50;99.90;;;;;;4993006;28;20288;-73
2021/04/29 07:26:49;;;;;;;;;;;18.40;99.90;;;;;;4992881;28;19914;-73
2021/04/29 07:29:16;;;;;;;;;;;18.40;99.90;;;;;;4994144;28;20013;-76
2021/04/29 07:31:43;;;;;;;;;;;18.40;99.90;;;;;;4994751;28;19917;-75
2021/04/29 07:34:11;;;;;;;;;;;18.40;99.90;;;;;;4994074;28;19926;-73
2021/04/29 07:36:38;;;;;;;;;;;18.40;99.90;;;;;;4994126;28;19910;-74
2021/04/29 07:39:05;;;;;;;;;;;18.40;99.90;;;;;;4994201;28;19910;-72
2021/04/29 07:41:31;;;;;;;;;;;18.40;99.90;;;;;;4993773;28;19972;-73
2021/04/29 07:43:59;;;;;;;;;;;18.40;99.90;;;;;;4994071;28;20000;-71
2021/04/29 07:46:26;;;;;;;;;;;18.30;99.90;;;;;;4994295;28;19910;-70
2021/04/29 07:48:52;;;;;;;;;;;18.30;99.90;;;;;;4993290;28;20336;-71
2021/04/29 07:51:19;;;;;;;;;;;18.30;99.90;;;;;;4993416;28;19914;-70
2021/04/29 07:53:45;;;;;;;;;;;18.30;99.90;;;;;;4993204;28;19960;-71
2021/04/29 07:56:12;;;;;;;;;;;18.30;99.90;;;;;;4992929;28;20456;-71
2021/04/29 07:58:39;;;;;;;;;;;18.20;99.90;;;;;;4993168;28;19973;-70
2021/04/29 08:01:05;;;;;;;;;;;18.30;99.90;;;;;;4992956;28;19909;-72
2021/04/29 08:03:32;;;;;;;;;;;18.20;99.90;;;;;;4993067;28;19913;-69
2021/04/29 08:05:59;;;;;;;;;;;18.20;99.90;;;;;;4992217;28;20308;-70
2021/04/29 08:08:25;;;;;;;;;;;18.20;99.90;;;;;;4992578;28;19910;-69
2021/04/29 08:10:52;;;;;;;;;;;18.10;99.90;;;;;;4992754;28;19913;-72
2021/04/29 08:13:22;;;;;;;;;;;18.20;99.90;;;;;;4992781;28;19969;-69
2021/04/29 08:15:48;;;;;;;;;;;18.20;99.90;;;;;;4992367;28;20371;-69
2021/04/29 08:18:15;;;;;;;;;;;18.10;99.90;;;;;;4991191;28;19996;-71
2021/04/29 08:20:42;;;;;;;;;;;18.10;99.90;;;;;;4992291;28;19914;-69
2021/04/29 08:23:09;;;;;;;;;;;18.20;99.90;;;;;;5002585;28;20003;-73
2021/04/29 08:25:36;;;;;;;;;;;18.10;99.90;;;;;;5016986;28;20011;-71
2021/04/29 08:28:03;;;;;;;;;;;18.10;99.90;;;;;;5017253;28;20451;-71
2021/04/29 08:30:30;;;;;;;;;;;18.10;99.90;;;;;;5019182;28;19960;-73
2021/04/29 08:32:58;;;;;;;;;;;18.10;99.90;;;;;;5019058;28;19919;-72
2021/04/29 08:35:25;;;;;;;;;;;18.10;99.90;;;;;;5018566;28;19940;-71
2021/04/29 08:37:52;;;;;;;;;;;18.00;99.90;;;;;;5016692;28;19945;-73
2021/04/29 08:40:22;;;;;;;;;;;18.00;99.90;;;;;;5018078;28;19936;-72
2021/04/29 08:42:49;;;;;;;;;;;18.00;99.90;;;;;;5018014;28;19948;-71
2021/04/29 08:45:17;;;;;;;;;;;18.10;99.90;;;;;;5016980;28;19953;-71
2021/04/29 08:47:47;;;;;;;;;;;18.10;99.90;;;;;;5016868;28;19913;-71
2021/04/29 08:50:14;;;;;;;;;;;18.00;99.90;;;;;;5016020;28;19914;-70
2021/04/29 08:52:41;;;;;;;;;;;18.00;99.90;;;;;;5012049;28;19913;-71
2021/04/29 08:55:08;;;;;;;;;;;18.00;99.90;;;;;;5010656;28;20447;-70
2021/04/29 08:57:35;;;;;;;;;;;18.00;99.90;;;;;;4993823;28;19952;-70
2021/04/29 09:00:03;;;;;;;;;;;18.00;99.90;;;;;;5011352;28;19910;-72
2021/04/29 09:02:36;;;;;;;;;;;17.90;99.90;;;;;;5011948;28;20249;-71
2021/04/29 09:05:14;;;;;;;;;;;17.90;99.90;;;;;;4993633;28;20365;-71
2021/04/29 09:07:55;;;;;;;;;;;17.90;99.90;;;;;;5011816;28;19919;-71
2021/04/29 09:10:29;;;;;;;;;;;17.90;99.90;;;;;;4978701;28;20048;-70
2021/04/29 09:12:55;;;;;;;;;;;17.90;99.90;;;;;;5011898;28;19916;-72
2021/04/29 09:15:23;;;;;;;;;;;17.90;99.90;;;;;;5013492;28;19939;-72
2021/04/29 09:18:08;;;;;;;;;;;17.90;99.90;;;;;;5013150;28;20434;-69
2021/04/29 09:20:36;;;;;;;;;;;17.80;99.90;;;;;;5011134;28;19920;-72
2021/04/29 09:23:06;;;;;;;;;;;17.90;99.90;;;;;;5011261;28;20292;-71
2021/04/29 09:25:33;;;;;;;;;;;17.90;99.90;;;;;;4993855;28;19913;-73
2021/04/29 09:28:00;;;;;;;;;;;17.90;99.90;;;;;;5010423;28;19910;-71
2021/04/29 09:30:28;;;;;;;;;;;17.80;99.90;;;;;;5010945;28;19918;-69
2021/04/29 09:32:59;;;;;;;;;;;17.80;99.90;;;;;;5010712;28;20190;-70
2021/04/29 09:35:26;;;;;;;;;;;17.80;99.90;;;;;;4992926;28;19921;-70
2021/04/29 09:37:58;;;;;;;;;;;17.70;99.90;;;;;;5010774;28;20415;-70
2021/04/29 09:40:26;;;;;;;;;;;17.60;99.90;;;;;;5010730;28;19909;-69
2021/04/29 09:42:54;;;;;;;;;;;17.60;99.90;;;;;;4993418;28;20380;-69
2021/04/29 09:45:28;;;;;;;;;;;17.50;99.90;;;;;;5011210;28;19910;-68
2021/04/29 09:48:00;;;;;;;;;;;17.50;99.90;;;;;;5011098;28;20344;-70
2021/04/29 09:50:29;;;;;;;;;;;17.50;99.90;;;;;;5010583;28;20489;-71
2021/04/29 09:52:59;;;;;;;;;;;17.50;99.90;;;;;;5010228;28;19916;-71
2021/04/29 09:55:27;;;;;;;;;;;17.50;99.90;;;;;;5010839;28;19925;-68
2021/04/29 09:58:03;;;;;;;;;;;17.50;99.90;;;;;;5010748;28;19933;-70
2021/04/29 10:00:30;;;;;;;;;;;17.50;99.90;;;;;;5010823;28;19949;-68
2021/04/29 10:02:57;;;;;;;;;;;17.50;99.90;;;;;;5011271;28;19925;-70
2021/04/29 10:05:23;;;;;;;;;;;17.50;99.90;;;;;;5010849;28;19956;-71
2021/04/29 10:07:51;;;;;;;;;;;17.50;99.90;;;;;;5010336;28;19914;-71
2021/04/29 10:10:19;;;;;;;;;;;17.50;99.90;;;;;;5010478;28;19924;-71
2021/04/29 10:12:47;;;;;;;;;;;17.60;99.90;;;;;;5010350;28;19913;-70
2021/04/29 10:15:13;;;;;;;;;;;17.50;99.90;;;;;;5010479;28;19917;-71
2021/04/29 10:17:40;;;;;;;;;;;17.60;99.90;;;;;;5010475;28;19909;-71
2021/04/29 10:20:07;;;;;;;;;;;17.60;99.90;;;;;;5009707;28;19913;-72
2021/04/29 10:22:33;;;;;;;;;;;17.60;99.90;;;;;;5010477;28;19921;-71
2021/04/29 10:25:00;;;;;;;;;;;17.60;99.90;;;;;;5010246;28;19921;-70
2021/04/29 10:27:29;;;;;;;;;;;17.60;99.90;;;;;;5010761;28;19964;-72
2021/04/29 10:30:06;;;;;;;;;;;17.60;99.90;;;;;;5010652;28;19909;-71
2021/04/29 10:32:36;;;;;;;;;;;17.60;99.90;;;;;;5010144;28;20554;-72
2021/04/29 10:35:23;;;;;;;;;;;17.60;99.90;;;;;;5009580;28;20376;-72
2021/04/29 10:38:00;;;;;;;;;;;17.50;99.90;;;;;;5010082;28;19917;-73
2021/04/29 10:40:34;;;;;;;;;;;17.50;99.90;;;;;;5009995;28;20308;-72
2021/04/29 10:43:02;;;;;;;;;;;17.50;99.90;;;;;;5011789;28;19967;-72
2021/04/29 10:45:30;;;;;;;;;;;17.50;99.90;;;;;;5013114;28;20406;-72
2021/04/29 10:48:10;;;;;;;;;;;17.40;99.90;;;;;;4995207;28;19922;-72
2021/04/29 10:50:44;;;;;;;;;;;17.40;99.90;;;;;;4995164;28;19971;-72
2021/04/29 10:53:12;;;;;;;;;;;17.30;99.90;;;;;;4995387;28;20016;-71
2021/04/29 10:55:39;;;;;;;;;;;17.30;99.90;;;;;;4995257;28;19918;-71
2021/04/29 10:58:07;;;;;;;;;;;17.20;99.90;;;;;;4994999;28;19922;-71
2021/04/29 11:00:53;;;;;;;;;;;17.10;99.90;;;;;;4995128;28;19909;-71
2021/04/29 11:03:38;;;;;;;;;;;17.10;99.90;;;;;;4995204;28;19934;-72
2021/04/29 11:06:13;;;;;;;;;;;17.00;99.90;;;;;;4995122;28;19910;-72
2021/04/29 11:08:43;;;;;;;;;;;17.00;99.90;;;;;;4995045;28;20037;-71
2021/04/29 11:11:23;;;;;;;;;;;17.00;99.90;;;;;;4994881;28;20643;-72
2021/04/29 11:14:10;;;;;;;;;;;17.00;99.90;;;;;;4994884;28;19933;-70
2021/04/29 11:16:46;;;;;;;;;;;17.00;99.90;;;;;;4994949;28;19924;-71
2021/04/29 11:19:31;;;;;;;;;;;17.10;99.90;;;;;;4994935;28;20361;-69
2021/04/29 11:22:01;;;;;;;;;;;17.20;99.90;;;;;;4994903;28;19972;-72
2021/04/29 11:24:38;;;;;;;;;;;17.30;99.90;;;;;;4994463;28;19910;-72
2021/04/29 11:27:05;;;;;;;;;;;17.30;99.90;;;;;;4994961;28;20340;-72
2021/04/29 11:29:35;;;;;;;;;;;17.30;99.90;;;;;;4996329;28;19921;-70
2021/04/29 11:32:02;;;;;;;;;;;17.40;99.90;;;;;;4997930;28;20001;-71
2021/04/29 11:34:38;;;;;;;;;;;17.30;99.90;;;;;;4995565;28;19945;-71
2021/04/29 11:37:05;;;;;;;;;;;17.30;99.90;;;;;;4994053;28;19913;-70
2021/04/29 11:39:31;;;;;;;;;;;17.30;99.90;;;;;;4994548;28;19910;-70
2021/04/29 11:42:01;;;;;;;;;;;17.30;99.90;;;;;;4994501;28;20061;-71
2021/04/29 11:44:28;;;;;;;;;;;17.30;99.90;;;;;;4995350;28;19920;-72
2021/04/29 11:46:55;;;;;;;;;;;17.30;99.90;;;;;;4995020;28;19952;-71
2021/04/29 11:49:22;;;;;;;;;;;17.20;99.90;;;;;;4995773;28;19910;-71
2021/04/29 11:51:49;;;;;;;;;;;17.20;99.90;;;;;;4995325;28;20048;-70
2021/04/29 11:54:19;;;;;;;;;;;17.20;99.90;;;;;;4995490;28;19921;-70
2021/04/29 11:56:59;;;;;;;;;;;17.20;99.90;;;;;;4995137;28;19917;-71
2021/04/29 11:59:29;;;;;;;;;;;17.10;99.90;;;;;;4993737;28;19910;-71
2021/04/29 12:01:57;;;;;;;;;;;17.10;99.90;;;;;;4994657;28;19914;-71
2021/04/29 12:04:24;;;;;;;;;;;17.10;99.90;;;;;;4994670;28;20296;-71
2021/04/29 12:06:51;;;;;;;;;;;17.00;99.90;;;;;;4995397;28;19921;-71
2021/04/29 12:09:21;;;;;;;;;;;17.00;99.90;;;;;;4995852;28;19932;-71
2021/04/29 12:11:48;;;;;;;;;;;16.90;99.90;;;;;;4994654;28;19922;-70
2021/04/29 12:14:25;;;;;;;;;;;16.90;99.90;;;;;;4994386;28;19918;-70
2021/04/29 12:16:54;;;;;;;;;;;16.90;99.90;;;;;;4994190;28;20432;-72
2021/04/29 12:19:27;;;;;;;;;;;16.90;99.90;;;;;;4994608;28;20024;-70
2021/04/29 12:21:53;;;;;;;;;;;16.90;99.90;;;;;;4994066;28;20571;-71
2021/04/29 12:24:20;;;;;;;;;;;16.90;99.90;;;;;;4994137;28;19910;-70
2021/04/29 12:26:48;;;;;;;;;;;16.90;99.90;;;;;;4993574;28;19960;-68
2021/04/29 12:29:19;;;;;;;;;;;16.90;99.90;;;;;;4993572;28;20293;-71
2021/04/29 12:31:56;;;;;;;;;;;16.80;99.90;;;;;;4994004;28;19956;-69
2021/04/29 12:34:23;;;;;;;;;;;16.80;99.90;;;;;;4994220;28;19980;-69
2021/04/29 12:36:55;;;;;;;;;;;16.80;99.90;;;;;;4994046;28;19910;-70
2021/04/29 12:39:23;;;;;;;;;;;16.80;99.90;;;;;;4993703;28;19914;-68
2021/04/29 12:42:00;;;;;;;;;;;16.90;99.90;;;;;;4993833;28;19928;-70
2021/04/29 12:44:32;;;;;;;;;;;16.90;99.90;;;;;;4992801;28;19914;-69
2021/04/29 12:46:59;;;;;;;;;;;16.70;99.90;;;;;;4992862;28;19914;-68
2021/04/29 12:49:26;;;;;;;;;;;16.60;99.90;;;;;;4993410;28;20381;-71
2021/04/29 12:52:03;;;;;;;;;;;16.50;99.90;;;;;;4992964;28;19933;-70
2021/04/29 12:54:30;;;;;;;;;;;16.40;99.90;;;;;;4992865;28;19918;-70
2021/04/29 12:56:57;;;;;;;;;;;16.40;99.90;;;;;;4992782;28;20392;-69
2021/04/29 12:59:25;;;;;;;;;;;16.50;99.90;;;;;;4993215;28;19910;-71
2021/04/29 13:02:05;;;;;;;;;;;16.40;99.90;;;;;;4993012;28;19914;-71
2021/04/29 13:04:32;;;;;;;;;;;16.40;99.90;;;;;;4992758;28;20318;-70
2021/04/29 13:07:02;;;;;;;;;;;16.30;99.90;;;;;;4991812;28;19913;-71
2021/04/29 13:09:33;;;;;;;;;;;16.30;99.90;;;;;;4992471;28;19949;-71
2021/04/29 13:12:26;;;;;;;;;;;16.20;99.90;;;;;;4992921;28;19910;-71
2021/04/29 13:15:00;;;;;;;;;;;16.20;99.90;;;;;;4989237;28;20388;-71
2021/04/29 13:17:27;;;;;;;;;;;16.20;99.90;;;;;;4992947;28;19914;-72
2021/04/29 13:20:02;;;;;;;;;;;16.10;99.90;;;;;;4992619;28;19917;-71
2021/04/29 13:22:29;;;;;;;;;;;16.20;99.90;;;;;;4992147;28;19916;-72
2021/04/29 13:25:04;;;;;;;;;;;16.10;99.90;;;;;;4992465;28;19914;-71
2021/04/29 13:27:30;;;;;;;;;;;16.10;99.90;;;;;;4992578;28;20373;-72
2021/04/29 13:29:58;;;;;;;;;;;16.10;99.90;;;;;;4992448;28;20372;-71
2021/04/29 13:32:27;;;;;;;;;;;16.10;99.90;;;;;;4992483;28;19952;-70
2021/04/29 13:34:54;;;;;;;;;;;16.10;99.90;;;;;;4991889;28;19961;-69
2021/04/29 13:37:21;;;;;;;;;;;16.10;99.90;;;;;;4992352;28;19945;-72
2021/04/29 13:40:26;;;;;;;;;;;;;;;;;;;;;
2021/04/29 13:42:56;;;;;;;;;;;16.20;99.90;;;;;;4950319;28;20320;-70
2021/04/29 13:45:25;;;;;;;;;;;16.10;99.90;;;;;;4968338;28;20441;-70
2021/04/29 13:47:52;;;;;;;;;;;16.10;99.90;;;;;;4953358;28;20035;-72
2021/04/29 13:50:19;;;;;;;;;;;16.10;99.90;;;;;;4953434;28;20021;-70
2021/04/29 13:52:46;;;;;;;;;;;16.10;99.90;;;;;;4953152;28;19919;-70
2021/04/29 13:55:14;;;;;;;;;;;16.10;99.90;;;;;;4953313;28;19926;-71
2021/04/29 13:57:40;;;;;;;;;;;16.10;99.90;;;;;;4953265;28;19915;-71
2021/04/29 14:00:09;;;;;;;;;;;16.10;99.90;;;;;;4953366;28;20350;-70
2021/04/29 14:02:35;;;;;;;;;;;16.00;99.90;;;;;;4952951;28;19993;-69
2021/04/29 14:05:03;;;;;;;;;;;16.10;99.90;;;;;;4952954;28;20005;-70
2021/04/29 14:07:29;;;;;;;;;;;16.10;99.90;;;;;;4953214;28;20247;-70
2021/04/29 14:09:56;;;;;;;;;;;16.10;99.90;;;;;;4953188;28;19921;-69
2021/04/29 14:12:23;;;;;;;;;;;16.00;99.90;;;;;;4953095;28;19915;-68
2021/04/29 14:14:49;;;;;;;;;;;16.00;99.90;;;;;;4952475;28;20388;-69
2021/04/29 14:17:16;;;;;;;;;;;16.00;99.90;;;;;;4953230;28;20396;-69
2021/04/29 14:19:45;;;;;;;;;;;16.00;99.90;;;;;;4953090;28;19917;-70
2021/04/29 14:22:12;;;;;;;;;;;16.00;99.90;;;;;;4953107;28;20285;-72
2021/04/29 14:24:38;;;;;;;;;;;16.00;99.90;;;;;;4953114;28;20326;-69
2021/04/29 14:27:05;;;;;;;;;;;16.00;99.90;;;;;;4952881;28;20024;-68